KWRL/WRL METAR and TAF weather

Enter ICAO airport designator
Station Type Date Time Source
KWRL METAR 2019/02/22 22:53 UTC NOAA

KWRL 222253Z AUTO 13006KT 10SM CLR M04/M10 A2983 RMK AO2 SLP162 T10441100


Station Type Date Time Source
KWRL Decoded METAR 2019/02/22 22:53 UTC NOAA

WORLAND MUNICIPAL AIRPORT, WY, United States (KWRL) 43-58N 107-57W 1271M
Feb 22, 2019 - 05:53 PM EST / 2019.02.22 2253 UTC
Wind: from the SE (130 degrees) at 7 MPH (6 KT):0
Visibility: 10 mile(s):0
Sky conditions: clear
Temperature: 24.1 F (-4.4 C)
Windchill: 15 F (-9 C):1
Dew Point: 14.0 F (-10.0 C)
Relative Humidity: 64%
Pressure (altimeter): 29.83 in. Hg (1010 hPa)
ob: KWRL 222253Z AUTO 13006KT 10SM CLR M04/M10 A2983 RMK AO2 SLP162 T10441100
cycle: 23

Station Type Date Time Source
KWRL TAF 2019/02/22 18:36 UTC NOAA

TAF KWRL 221733Z 2218/2318 VRB04KT P6SM SCT030 SCT150
TEMPO 2218/2219 4SM -SN
FM230100 VRB04KT P6SM FEW200


Example: see airport list